Dati Storici

Data ora Umidita' aria (%) Temperatura aria (°C) Rad globale (W/m²) Gonioanemometro (°) Tacoanemometro (m/s) Pioggia (mm)
20-10-2012 16:40 75.1 % 17.567 141.113 139.406 0.546 0
20-10-2012 16:30 74.2 % 17.639 172.828 14.332 0.678 0
20-10-2012 16:20 76.2 % 17.588 200.78 7.105 0.394 0
20-10-2012 16:10 78.2 % 16.741 214.568 174.312 0.876 0
20-10-2012 16:00 79.9 % 16.717 217.29 167.203 0.54 0
20-10-2012 15:50 80.9 % 16.225 250.658 83.361 0.883 0
20-10-2012 15:40 80.9 % 16.1 218.025 99.735 1.594 0
20-10-2012 15:30 80.2 % 16.196 184.966 89.807 2.046 0
20-10-2012 15:20 79.3 % 16.28 194.351 86.678 2.006 0
20-10-2012 15:10 78.7 % 16.217 232.383 130.816 1.403 0
20-10-2012 15:00 78.3 % 16.264 185.887 114.576 1.219 0
20-10-2012 14:50 78 % 16.505 167.367 116.197 0.764 0
20-10-2012 14:40 77.4 % 16.941 196.839 96.613 1.225 0
20-10-2012 14:30 77.6 % 16.559 208.915 125.425 1.433 0
20-10-2012 14:20 76.4 % 16.706 221.529 122.019 1.582 0
20-10-2012 14:10 74.7 % 17.335 301.259 124.681 1.445 0
20-10-2012 14:00 74.5 % 17.757 438.692 84.459 1.06 0
20-10-2012 13:50 73.1 % 17.183 473.932 83.254 1.648 0
20-10-2012 13:40 73.1 % 17.378 543.26 77.724 1.428 0
20-10-2012 13:30 71.4 % 17.949 311.133 93.088 1.09 0

I dati sono presentati in modo automatico a scopo informativo. In seguito a verifica i dati possono subire modifiche o essere invalidati e non riportati negli archivi definitivi.